Time;durP1;ratioP1;P1;durP2;ratioP2;P2;SDS_P1;SDS_P2;PMS_P1;PMS_P2;Temp;Humidity;BMP_temperature;BMP_pressure;BME280_temperature;BME280_humidity;BME280_pressure;Samples;Min_cycle;Max_cycle;Signal;HPM_P1;HPM_P2
2022/06/26 00:02:24;;;;;;;4.40;4.10;;;;;;;20.09;59.96;100494.19;5088745;28;20482;-27
2022/06/26 00:04:49;;;;;;;4.28;3.97;;;;;;;20.09;60.35;100496.84;5072217;28;20023;-27
2022/06/26 00:07:15;;;;;;;4.13;3.75;;;;;;;20.03;60.09;100491.81;5089632;28;20016;-27
2022/06/26 00:09:41;;;;;;;3.95;3.63;;;;;;;20.07;60.36;100497.88;5089728;28;20028;-26
2022/06/26 00:12:07;;;;;;;4.53;4.13;;;;;;;20.03;60.38;100489.13;5089368;28;20027;-25
2022/06/26 00:14:32;;;;;;;4.75;4.22;;;;;;;20.01;60.61;100493.72;5085934;28;20031;-27
2022/06/26 00:16:58;;;;;;;4.03;3.72;;;;;;;20.00;60.63;100487.47;5091712;28;20401;-27
2022/06/26 00:19:23;;;;;;;4.32;4.10;;;;;;;19.98;60.55;100493.84;5085331;22;20045;-25
2022/06/26 00:21:50;;;;;;;4.82;4.43;;;;;;;19.93;60.72;100490.50;5066875;28;20505;-25
2022/06/26 00:24:16;;;;;;;4.05;3.78;;;;;;;19.94;60.95;100493.09;5064693;28;20481;-25
2022/06/26 00:26:41;;;;;;;4.22;3.92;;;;;;;19.90;60.88;100496.06;5067109;28;20029;-25
2022/06/26 00:29:06;;;;;;;3.92;3.72;;;;;;;19.86;60.86;100504.22;5062286;28;20029;-25
2022/06/26 00:31:32;;;;;;;4.10;3.85;;;;;;;19.82;60.77;100501.78;5052194;28;20090;-25
2022/06/26 00:33:57;;;;;;;4.63;4.00;;;;;;;19.79;61.21;100505.47;5048917;28;20044;-25
2022/06/26 00:36:22;;;;;;;4.60;4.30;;;;;;;19.80;61.14;100501.84;5050810;28;20017;-25
2022/06/26 00:38:48;;;;;;;4.25;3.95;;;;;;;19.77;61.04;100512.69;5051849;28;20013;-25
2022/06/26 00:41:13;;;;;;;4.05;3.70;;;;;;;19.74;61.04;100508.38;5048369;28;20035;-26
2022/06/26 00:43:47;;;;;;;4.22;3.92;;;;;;;19.75;61.03;100507.44;5051808;28;20036;-25
2022/06/26 00:46:13;;;;;;;4.60;4.30;;;;;;;19.71;61.37;100507.69;5051356;28;20021;-25
2022/06/26 00:48:39;;;;;;;4.47;4.07;;;;;;;19.70;61.38;100505.94;5049237;28;20036;-25
2022/06/26 00:51:04;;;;;;;4.10;3.80;;;;;;;19.69;61.24;100505.06;5049267;28;20538;-25
2022/06/26 00:53:29;;;;;;;4.38;4.07;;;;;;;19.67;61.20;100503.44;5030681;28;20028;-25
2022/06/26 00:55:55;;;;;;;4.32;4.03;;;;;;;19.65;61.02;100510.66;5052059;28;20395;-25
2022/06/26 00:58:21;;;;;;;4.45;4.15;;;;;;;19.60;61.13;100510.88;5049039;28;20040;-25
2022/06/26 01:00:46;;;;;;;5.00;4.13;;;;;;;19.59;61.16;100514.50;5050657;28;20021;-25
2022/06/26 01:03:12;;;;;;;4.32;4.03;;;;;;;19.54;61.16;100513.88;5050625;28;20063;-25
2022/06/26 01:05:39;;;;;;;4.32;3.85;;;;;;;19.53;61.27;100506.78;5050499;28;20094;-28
2022/06/26 01:08:06;;;;;;;4.28;3.97;;;;;;;19.49;61.29;100511.41;5049581;28;20490;-25
2022/06/26 01:10:48;;;;;;;4.30;3.90;;;;;;;19.45;61.52;100509.84;5029353;28;20024;-25
2022/06/26 01:13:14;;;;;;;4.47;4.18;;;;;;;19.41;61.46;100508.25;5047687;28;20041;-25
2022/06/26 01:15:40;;;;;;;4.10;3.80;;;;;;;19.43;61.59;100509.91;5031106;28;20410;-25
2022/06/26 01:18:05;;;;;;;4.20;3.90;;;;;;;19.38;61.71;100505.72;5016283;28;20021;-25
2022/06/26 01:20:54;;;;;;;4.40;4.10;;;;;;;19.35;61.82;100502.25;5047878;28;20511;-25
2022/06/26 01:23:19;;;;;;;4.65;4.25;;;;;;;19.35;61.78;100502.25;5031674;28;20032;-25
2022/06/26 01:25:47;;;;;;;5.07;4.70;;;;;;;19.32;61.72;100509.56;5046739;28;20033;-26
2022/06/26 01:28:13;;;;;;;4.65;4.35;;;;;;;19.28;62.09;100506.19;5046561;28;20059;-25
2022/06/26 01:30:38;;;;;;;4.55;4.25;;;;;;;19.26;61.70;100508.06;5044186;28;20063;-25
2022/06/26 01:33:05;;;;;;;4.50;4.20;;;;;;;19.18;61.64;100497.72;5048758;28;20116;-25
2022/06/26 01:35:30;;;;;;;4.35;4.05;;;;;;;19.22;62.08;100506.47;5028711;28;20027;-25
2022/06/26 01:37:56;;;;;;;5.32;4.93;;;;;;;19.16;62.04;100501.41;5048816;28;20017;-25
2022/06/26 01:40:21;;;;;;;7.63;4.97;;;;;;;19.16;61.99;100496.06;5012415;28;20029;-25
2022/06/26 01:42:49;;;;;;;4.80;4.50;;;;;;;19.16;61.96;100507.63;5030655;28;20057;-25
2022/06/26 01:45:15;;;;;;;5.15;4.65;;;;;;;19.10;62.02;100503.44;5048649;28;20023;-25
2022/06/26 01:47:40;;;;;;;5.10;4.70;;;;;;;19.08;61.95;100509.81;5046978;28;20020;-26
2022/06/26 01:50:05;;;;;;;4.72;4.43;;;;;;;19.07;62.15;100508.06;5048321;28;20032;-26
2022/06/26 01:52:31;;;;;;;4.97;4.47;;;;;;;19.02;62.43;100508.28;5043905;28;20025;-25
2022/06/26 01:54:56;;;;;;;5.18;4.72;;;;;;;19.01;62.00;100506.53;5048097;28;20036;-25
2022/06/26 01:57:21;;;;;;;5.00;4.60;;;;;;;18.99;62.15;100508.41;5048552;28;20017;-26
2022/06/26 01:59:47;;;;;;;7.95;4.38;;;;;;;18.96;62.17;100506.75;5046210;28;20059;-25
2022/06/26 02:02:12;;;;;;;4.88;4.47;;;;;;;18.92;62.19;100504.28;5027513;28;20044;-26
2022/06/26 02:04:37;;;;;;;4.35;3.95;;;;;;;18.91;61.76;100502.56;5026193;28;20078;-25
2022/06/26 02:07:03;;;;;;;4.47;4.18;;;;;;;18.87;61.92;100501.81;5047522;28;20013;-25
2022/06/26 02:15:06;;;;;;;4.75;4.38;;;;;;;18.66;61.92;100501.91;5044793;28;20040;-25
2022/06/26 02:17:32;;;;;;;4.85;4.45;;;;;;;18.62;62.12;100507.44;5052000;28;20040;-25
2022/06/26 02:19:57;;;;;;;5.03;4.53;;;;;;;18.64;62.34;100505.56;5053140;28;20399;-25
2022/06/26 02:22:22;;;;;;;5.22;4.82;;;;;;;18.64;62.49;100510.91;5048322;28;20025;-26
2022/06/26 02:24:48;;;;;;;4.38;3.97;;;;;;;18.59;62.49;100524.47;5042427;28;20067;-25
2022/06/26 02:27:13;;;;;;;4.57;4.28;;;;;;;18.51;62.39;100521.28;5052815;28;20063;-25
2022/06/26 02:29:38;;;;;;;5.25;4.80;;;;;;;18.47;62.68;100528.56;5050972;28;20052;-25
2022/06/26 02:32:04;;;;;;;5.20;4.85;;;;;;;18.44;62.62;100531.38;5046752;28;20036;-25
2022/06/26 02:34:29;;;;;;;4.68;4.35;;;;;;;18.50;62.44;100528.41;5047953;28;20025;-26
2022/06/26 02:36:54;;;;;;;5.55;5.15;;;;;;;18.50;62.50;100524.91;5052586;28;20631;-25
2022/06/26 02:39:20;;;;;;;4.60;4.28;;;;;;;18.51;62.58;100532.81;5051920;28;20016;-25
2022/06/26 02:41:45;;;;;;;4.80;4.43;;;;;;;18.47;62.73;100536.56;5050222;28;20048;-25
2022/06/26 02:44:10;;;;;;;5.07;4.72;;;;;;;18.44;62.99;100531.38;5046950;28;20112;-25
2022/06/26 02:46:36;;;;;;;4.65;4.28;;;;;;;18.39;62.85;100538.72;5051113;28;20104;-26
2022/06/26 02:49:01;;;;;;;4.95;4.65;;;;;;;18.41;62.92;100532.38;5031860;28;20265;-25
2022/06/26 02:51:26;;;;;;;4.78;4.45;;;;;;;18.41;62.96;100537.69;5048742;28;20086;-25
2022/06/26 02:53:52;;;;;;;5.40;4.82;;;;;;;18.41;62.51;100532.38;5052205;28;20052;-25
2022/06/26 02:56:17;;;;;;;4.68;4.38;;;;;;;18.36;62.82;100534.38;5046694;28;20069;-28
2022/06/26 02:58:55;;;;;;;5.35;4.85;;;;;;;18.37;62.65;100535.25;5047683;28;20036;-25
2022/06/26 03:01:20;;;;;;;4.82;4.45;;;;;;;18.36;62.52;100530.84;5029030;28;20303;-25
2022/06/26 03:03:45;;;;;;;5.28;4.80;;;;;;;18.33;62.69;100539.84;5047725;28;20484;-25
2022/06/26 03:06:11;;;;;;;4.82;4.53;;;;;;;18.26;62.80;100533.03;5032836;28;20037;-25
2022/06/26 03:08:36;;;;;;;5.15;4.75;;;;;;;18.23;63.14;100544.72;5030015;28;20020;-25
2022/06/26 03:11:02;;;;;;;4.90;4.50;;;;;;;18.26;62.82;100541.06;5047535;28;20060;-25
2022/06/26 03:13:27;;;;;;;5.07;4.78;;;;;;;18.22;63.17;100543.00;5047754;28;20130;-25
2022/06/26 03:15:52;;;;;;;4.80;4.50;;;;;;;18.22;63.12;100548.34;5048592;28;20036;-25
2022/06/26 03:18:18;;;;;;;4.88;4.57;;;;;;;18.18;63.26;100552.91;5028852;28;20017;-25
2022/06/26 03:20:49;;;;;;;5.53;5.13;;;;;;;18.18;63.37;100547.59;5050189;28;20032;-25
2022/06/26 03:23:14;;;;;;;5.20;4.70;;;;;;;18.19;63.46;100546.66;5047506;28;20083;-26
2022/06/26 03:25:40;;;;;;;5.03;4.68;;;;;;;18.19;63.25;100554.69;5032225;28;20488;-26
2022/06/26 03:28:05;;;;;;;5.13;4.70;;;;;;;18.20;63.27;100566.22;5050890;28;20012;-25
2022/06/26 03:30:30;;;;;;;4.90;4.60;;;;;;;18.22;63.56;100561.69;5049561;28;20049;-24
2022/06/26 03:32:55;;;;;;;4.93;4.55;;;;;;;18.25;63.60;100553.53;5051814;28;20531;-24
2022/06/26 03:35:21;;;;;;;5.82;5.35;;;;;;;18.22;64.02;100561.69;5049628;28;20029;-24
2022/06/26 03:37:46;;;;;;;5.25;4.85;;;;;;;18.23;63.39;100568.75;5051518;28;20552;-24
2022/06/26 03:40:12;;;;;;;4.45;4.15;;;;;;;18.20;63.44;100576.88;5049995;28;20476;-24
2022/06/26 03:42:40;;;;;;;6.43;4.93;;;;;;;18.24;63.51;100583.81;5051731;28;20036;-24
2022/06/26 03:45:06;;;;;;;5.25;4.85;;;;;;;18.25;63.71;100574.91;5050585;28;20028;-24
2022/06/26 03:47:35;;;;;;;5.50;4.82;;;;;;;18.25;63.85;100574.91;5049841;28;20040;-24
2022/06/26 03:50:00;;;;;;;5.53;5.13;;;;;;;18.26;63.70;100571.28;5047993;28;20120;-24
2022/06/26 03:52:25;;;;;;;4.95;4.55;;;;;;;18.23;63.74;100571.41;5049768;28;20116;-24
2022/06/26 03:54:51;;;;;;;5.40;5.00;;;;;;;18.28;63.96;100564.06;5049170;28;20056;-24
2022/06/26 03:57:17;;;;;;;5.25;4.85;;;;;;;18.29;63.66;100581.84;5049240;28;20063;-25
2022/06/26 03:59:45;;;;;;;5.22;4.82;;;;;;;18.30;63.43;100572.88;5049677;28;20036;-25
2022/06/26 04:02:11;;;;;;;4.75;4.45;;;;;;;18.33;63.50;100571.88;5049181;28;20039;-25
2022/06/26 04:04:36;;;;;;;5.40;4.90;;;;;;;18.33;63.38;100572.75;5048607;28;20498;-25
2022/06/26 04:07:01;;;;;;;5.32;4.82;;;;;;;18.34;63.79;100571.81;5050304;28;20076;-25
2022/06/26 04:09:27;;;;;;;4.93;4.63;;;;;;;18.38;63.46;100572.56;5032105;28;20103;-25
2022/06/26 04:11:52;;;;;;;5.47;4.97;;;;;;;18.40;64.09;100567.13;5049931;28;20494;-25
2022/06/26 04:14:17;;;;;;;5.47;5.07;;;;;;;18.42;63.82;100575.97;5048757;28;20464;-25
2022/06/26 04:16:43;;;;;;;5.72;5.32;;;;;;;18.44;64.11;100579.44;5050092;28;20150;-25
2022/06/26 04:19:08;;;;;;;5.13;4.72;;;;;;;18.46;63.96;100572.22;5048816;28;20020;-24
2022/06/26 04:21:33;;;;;;;5.50;5.00;;;;;;;18.48;63.89;100581.03;5047346;28;21342;-24
2022/06/26 04:24:01;;;;;;;5.53;5.13;;;;;;;18.52;63.99;100577.31;5049278;28;20188;-24
2022/06/26 04:26:27;;;;;;;5.13;4.72;;;;;;;18.58;64.09;100578.84;5031577;28;20154;-24
2022/06/26 04:28:52;;;;;;;5.45;4.95;;;;;;;18.61;64.51;100575.16;5049005;28;20116;-24
2022/06/26 04:31:20;;;;;;;5.63;5.10;;;;;;;18.66;64.88;100578.47;5046065;28;20515;-24
2022/06/26 04:33:46;;;;;;;5.13;4.72;;;;;;;18.69;64.73;100587.25;5050291;28;20032;-24
2022/06/26 04:36:21;;;;;;;5.72;5.25;;;;;;;18.71;64.21;100582.69;5049950;28;20033;-24
2022/06/26 04:38:46;;;;;;;5.10;4.68;;;;;;;18.77;63.52;100573.53;5046258;28;20404;-24
2022/06/26 04:43:56;;;;;;;5.15;4.78;;;;;;;18.85;63.37;100583.88;5050334;28;20067;-25
2022/06/26 04:46:21;;;;;;;5.25;4.85;;;;;;;18.92;62.82;100587.13;5046960;28;20056;-26
2022/06/26 04:48:47;;;;;;;4.90;4.60;;;;;;;18.94;62.50;100583.44;5054812;28;20099;-26
2022/06/26 04:51:12;;;;;;;4.80;4.50;;;;;;;18.99;62.41;100585.91;5056886;28;20021;-25
2022/06/26 04:53:38;;;;;;;5.05;4.68;;;;;;;19.02;62.81;100585.78;5049730;28;20407;-25
2022/06/26 04:56:04;;;;;;;4.63;4.25;;;;;;;19.06;62.56;100586.47;5049554;28;20120;-26
2022/06/26 04:58:33;;;;;;;5.35;4.97;;;;;;;19.11;62.43;100589.88;5053656;28;20116;-25
2022/06/26 05:00:58;;;;;;;4.55;4.15;;;;;;;19.15;62.26;100598.59;5052026;28;20119;-24
2022/06/26 05:03:23;;;;;;;4.28;3.97;;;;;;;19.17;62.20;100594.91;5049387;28;20111;-25
2022/06/26 05:05:49;;;;;;;5.05;4.65;;;;;;;19.20;62.33;100594.75;5046168;28;20168;-26
2022/06/26 05:08:14;;;;;;;4.70;4.40;;;;;;;19.23;62.17;100602.66;5051671;28;20039;-25
2022/06/26 05:10:42;;;;;;;4.57;4.28;;;;;;;19.25;62.20;100601.69;5046421;28;20407;-25
2022/06/26 05:13:07;;;;;;;4.88;4.55;;;;;;;19.30;61.97;100597.00;5029255;28;20051;-25
2022/06/26 05:15:33;;;;;;;4.55;4.25;;;;;;;19.31;62.11;100596.91;5050352;28;20508;-26
2022/06/26 05:17:58;;;;;;;4.88;4.47;;;;;;;19.34;61.76;100606.63;5047570;28;20067;-25
2022/06/26 05:20:23;;;;;;;4.70;4.40;;;;;;;19.39;61.82;100603.72;5046573;28;20021;-26
2022/06/26 05:22:52;;;;;;;4.57;4.28;;;;;;;19.41;61.94;100596.50;5028626;28;20285;-25
2022/06/26 05:25:17;;;;;;;4.57;4.28;;;;;;;19.41;61.96;100593.81;5047913;28;20059;-25
2022/06/26 05:27:42;;;;;;;4.38;4.07;;;;;;;19.43;61.90;100599.97;5048096;28;20048;-25
2022/06/26 05:30:08;;;;;;;4.60;4.20;;;;;;;19.46;61.51;100602.50;5046579;28;20027;-25
2022/06/26 05:32:33;;;;;;;4.55;4.25;;;;;;;19.49;61.22;100599.69;5046619;28;20510;-24
2022/06/26 05:34:58;;;;;;;4.75;4.45;;;;;;;19.52;61.59;100604.88;5051152;28;20033;-26
2022/06/26 05:37:25;;;;;;;4.22;4.00;;;;;;;19.56;61.46;100601.13;5051735;28;20063;-26
2022/06/26 05:39:50;;;;;;;4.63;4.32;;;;;;;19.61;61.33;100600.91;5049400;28;20055;-25
2022/06/26 05:42:16;;;;;;;4.90;4.60;;;;;;;19.69;61.30;100600.50;5029717;28;20041;-26
2022/06/26 05:44:41;;;;;;;4.05;3.55;;;;;;;19.76;61.22;100601.94;5047925;28;20427;-26
2022/06/26 05:47:06;;;;;;;4.53;4.22;;;;;;;19.87;61.70;100607.63;5029619;28;20033;-25
2022/06/26 05:49:34;;;;;;;5.20;4.80;;;;;;;19.96;61.00;100597.41;5048631;28;20029;-25
2022/06/26 05:52:00;;;;;;;5.45;5.05;;;;;;;20.05;60.81;100599.69;5047794;28;20043;-28
2022/06/26 05:54:25;;;;;;;5.15;4.75;;;;;;;20.18;61.12;100604.41;5046803;28;20396;-28
2022/06/26 05:57:00;;;;;;;6.18;5.68;;;;;;;20.27;61.29;100606.59;5047586;28;20112;-28
2022/06/26 06:00:06;;;;;;;5.35;5.05;;;;;;;20.37;61.77;100599.84;5046778;28;20098;-28
2022/06/26 06:02:32;;;;;;;5.97;5.53;;;;;;;20.49;61.18;100603.69;5043508;28;20063;-28
2022/06/26 06:04:57;;;;;;;6.10;5.65;;;;;;;20.58;61.78;100610.38;5045888;28;20033;-28
2022/06/26 06:07:22;;;;;;;5.47;5.07;;;;;;;20.69;61.47;100608.94;5048069;28;20025;-28
2022/06/26 06:09:47;;;;;;;5.93;5.43;;;;;;;20.80;60.98;100611.06;5048464;28;20392;-28
2022/06/26 06:12:13;;;;;;;5.95;5.55;;;;;;;20.91;61.62;100616.75;5048300;28;20653;-28
2022/06/26 06:14:41;;;;;;;6.13;5.63;;;;;;;21.03;62.19;100612.53;5048064;28;20029;-25
2022/06/26 06:19:50;;;;;;;6.93;6.32;;;;;;;21.31;62.21;100613.72;5065813;22;20054;-29
2022/06/26 06:22:16;;;;;;;6.22;5.78;;;;;;;21.44;61.99;100621.91;5084574;28;20067;-27
2022/06/26 06:24:41;;;;;;;7.88;7.18;;;;;;;21.58;63.04;100626.53;5087356;28;20082;-27
2022/06/26 06:27:06;;;;;;;7.90;7.22;;;;;;;21.70;62.92;100619.59;5087608;28;20070;-27
2022/06/26 06:29:31;;;;;;;7.20;6.60;;;;;;;21.80;61.99;100619.94;5086649;28;20468;-28
2022/06/26 06:31:57;;;;;;;8.32;7.72;;;;;;;21.94;63.49;100619.16;5067704;28;20038;-28
2022/06/26 06:34:22;;;;;;;7.20;6.70;;;;;;;22.03;63.21;100620.44;5065149;28;20074;-29
2022/06/26 06:36:47;;;;;;;6.97;6.38;;;;;;;22.15;63.50;100614.34;5043521;28;20107;-28
2022/06/26 06:39:13;;;;;;;8.23;7.47;;;;;;;22.28;62.55;100619.00;5065659;28;20483;-27
2022/06/26 06:41:38;;;;;;;8.15;7.28;;;;;;;22.41;62.60;100629.88;5064497;28;20020;-30
2022/06/26 06:44:04;;;;;;;8.10;7.50;;;;;;;22.52;62.81;100629.22;5064053;28;20032;-25
2022/06/26 06:46:32;;;;;;;7.75;7.13;;;;;;;22.62;63.60;100633.13;5047324;28;20056;-30
2022/06/26 06:48:57;;;;;;;7.57;6.97;;;;;;;22.74;62.66;100627.97;5063605;28;20135;-30
2022/06/26 06:51:23;;;;;;;6.85;6.32;;;;;;;22.83;63.29;100624.69;5067301;28;20116;-27
2022/06/26 06:53:49;;;;;;;6.80;6.30;;;;;;;22.94;62.11;100627.56;5069313;28;20029;-28
2022/06/26 06:56:14;;;;;;;6.72;6.32;;;;;;;23.04;61.56;100622.47;5071747;28;20029;-28
2022/06/26 06:58:39;;;;;;;6.78;6.15;;;;;;;23.17;62.18;100627.09;5069249;28;20051;-28
2022/06/26 07:01:05;;;;;;;6.32;5.72;;;;;;;23.25;60.35;100615.84;5070140;28;20312;-28
2022/06/26 07:03:30;;;;;;;5.85;5.38;;;;;;;23.36;61.28;100626.81;5069478;28;20477;-27
2022/06/26 07:05:58;;;;;;;7.05;6.35;;;;;;;23.52;61.55;100625.81;5070793;28;20108;-28
2022/06/26 07:08:24;;;;;;;6.05;5.65;;;;;;;23.60;60.90;100620.81;5050896;28;20049;-27
2022/06/26 07:10:52;;;;;;;5.93;5.43;;;;;;;23.73;60.70;100622.69;5074852;28;20024;-28
2022/06/26 07:13:17;;;;;;;6.05;5.65;;;;;;;23.85;60.30;100624.59;5070846;28;20031;-28
2022/06/26 07:15:42;;;;;;;5.88;5.43;;;;;;;23.96;60.23;100632.81;5067160;28;20222;-29
2022/06/26 07:18:08;;;;;;;5.72;5.32;;;;;;;24.07;60.34;100633.91;5074564;28;20028;-28
2022/06/26 07:20:37;;;;;;;5.75;5.35;;;;;;;24.19;60.79;100625.06;5052307;28;20056;-26
2022/06/26 07:23:02;;;;;;;5.85;5.25;;;;;;;24.31;61.02;100619.78;5069759;28;20071;-28
2022/06/26 07:25:28;;;;;;;5.20;4.72;;;;;;;24.45;60.61;100622.38;5035184;28;20506;-27
2022/06/26 07:27:53;;;;;;;5.85;5.30;;;;;;;24.56;59.94;100624.34;5068339;28;20510;-28
2022/06/26 07:30:19;;;;;;;5.80;5.40;;;;;;;24.68;59.84;100625.31;5068999;28;20230;-28
2022/06/26 07:32:45;;;;;;;5.55;5.07;;;;;;;24.82;59.96;100627.06;5069679;28;20123;-29
2022/06/26 07:35:10;;;;;;;5.05;4.75;;;;;;;24.90;59.18;100623.84;5068620;28;20111;-27
2022/06/26 07:37:36;;;;;;;5.35;4.90;;;;;;;25.05;59.04;100621.03;5051502;28;20033;-28
2022/06/26 07:40:01;;;;;;;5.38;5.07;;;;;;;25.19;58.89;100622.72;5068966;28;20075;-27
2022/06/26 07:42:26;;;;;;;5.53;5.13;;;;;;;25.27;59.32;100614.94;5070232;28;20064;-29
2022/06/26 07:44:52;;;;;;;5.45;5.05;;;;;;;25.40;59.07;100616.78;5066771;28;20032;-27
2022/06/26 07:47:17;;;;;;;5.75;5.03;;;;;;;25.53;58.54;100622.09;5070112;28;20093;-26
2022/06/26 07:49:42;;;;;;;7.35;5.18;;;;;;;25.75;58.55;100633.06;5069548;28;20082;-28
2022/06/26 07:52:08;;;;;;;5.43;5.03;;;;;;;25.90;58.08;100632.06;5068841;28;20450;-29
2022/06/26 07:54:33;;;;;;;4.90;4.50;;;;;;;26.00;56.98;100636.66;5052506;28;20555;-30
2022/06/26 07:56:59;;;;;;;5.30;4.93;;;;;;;26.17;57.86;100636.34;5053144;28;20117;-28
2022/06/26 07:59:24;;;;;;;4.82;4.53;;;;;;;26.29;57.53;100638.16;5071169;28;20029;-27
2022/06/26 08:01:49;;;;;;;4.63;4.32;;;;;;;26.45;57.00;100635.13;5067190;28;20021;-27
2022/06/26 08:04:15;;;;;;;5.20;4.80;;;;;;;26.59;56.45;100638.59;5067630;28;20021;-29
2022/06/26 08:06:40;;;;;;;4.75;4.45;;;;;;;26.71;56.22;100636.78;5074074;28;20024;-28
2022/06/26 08:09:06;;;;;;;5.22;4.75;;;;;;;26.86;56.07;100643.69;5067192;28;20024;-28
2022/06/26 08:11:34;;;;;;;4.68;4.20;;;;;;;26.98;56.39;100638.31;5068957;28;20120;-28
2022/06/26 08:14:00;;;;;;;4.75;4.35;;;;;;;27.11;55.98;100632.78;5069445;28;20033;-28
2022/06/26 08:16:25;;;;;;;4.75;4.45;;;;;;;27.27;55.40;100630.53;5036241;28;20035;-27
2022/06/26 08:18:50;;;;;;;4.88;4.35;;;;;;;27.41;54.64;100625.88;5070162;28;20050;-28
2022/06/26 08:23:59;;;;;;;4.85;4.55;;;;;;;27.62;54.22;100630.50;5069927;28;20657;-27
2022/06/26 08:26:25;;;;;;;4.50;4.15;;;;;;;27.92;49.71;100631.66;5055959;28;20516;-27
2022/06/26 08:28:50;;;;;;;4.47;4.13;;;;;;;28.00;52.70;100634.59;5068698;28;20031;-26
2022/06/26 08:31:16;;;;;;;4.25;3.95;;;;;;;28.07;52.57;100623.25;5053194;28;20392;-27
2022/06/26 08:33:41;;;;;;;4.15;3.92;;;;;;;28.15;53.55;100627.03;5071191;28;20028;-27
2022/06/26 08:36:06;;;;;;;4.35;4.05;;;;;;;28.32;52.64;100622.03;5071427;28;20031;-29
2022/06/26 08:38:32;;;;;;;3.83;3.63;;;;;;;28.43;52.23;100626.53;5070805;28;20089;-29
2022/06/26 08:40:59;;;;;;;4.18;3.88;;;;;;;28.53;53.28;100629.31;5054375;28;20032;-29
2022/06/26 08:43:27;;;;;;;3.53;3.33;;;;;;;28.66;52.94;100627.25;5068286;28;20608;-29
2022/06/26 08:45:53;;;;;;;3.70;3.50;;;;;;;28.89;52.33;100628.94;5070360;28;20111;-29
2022/06/26 08:48:19;;;;;;;3.80;3.50;;;;;;;29.14;50.18;100626.81;5068240;28;21256;-28
2022/06/26 08:50:45;;;;;;;3.80;3.50;;;;;;;29.21;50.89;100633.41;5074217;28;20016;-28
2022/06/26 08:53:10;;;;;;;4.15;3.83;;;;;;;29.29;50.36;100629.97;5049431;28;20061;-28
2022/06/26 08:55:45;;;;;;;3.92;3.63;;;;;;;29.33;49.46;100626.84;5049955;28;20039;-30
2022/06/26 08:58:10;;;;;;;3.40;3.20;;;;;;;29.44;50.66;100641.34;5071568;28;20055;-30
2022/06/26 09:10:44;;;;;;;3.50;3.30;;;;;;;30.06;49.66;100635.72;5070124;28;20108;-28
2022/06/26 09:13:09;;;;;;;3.50;3.20;;;;;;;30.25;48.54;100636.75;5070261;28;20372;-27
2022/06/26 09:15:38;;;;;;;3.53;2.90;;;;;;;30.52;47.38;100639.72;5048731;28;20115;-27
2022/06/26 09:18:06;;;;;;;2.90;2.70;;;;;;;30.50;47.53;100639.00;5068342;28;20036;-27
2022/06/26 09:20:36;;;;;;;2.85;2.65;;;;;;;30.53;48.12;100634.13;5067625;28;20058;-27
2022/06/26 09:23:06;;;;;;;2.80;2.70;;;;;;;30.53;48.03;100647.72;5052672;28;20040;-28
2022/06/26 09:25:43;;;;;;;3.78;2.83;;;;;;;30.60;47.85;100635.25;5068818;28;20103;-27
2022/06/26 09:28:20;;;;;;;3.00;2.80;;;;;;;30.68;47.83;100636.38;5067604;28;20025;-30
2022/06/26 09:31:00;;;;;;;2.97;2.88;;;;;;;30.73;47.16;100634.06;5067249;28;20031;-27
2022/06/26 09:33:26;;;;;;;2.83;2.67;;;;;;;30.71;49.64;100636.09;5047522;28;20025;-30
2022/06/26 09:35:52;;;;;;;2.75;2.55;;;;;;;30.68;45.95;100636.38;5065906;28;20484;-29
2022/06/26 09:38:20;;;;;;;3.35;3.15;;;;;;;30.73;44.50;100634.06;5068196;28;20157;-28
2022/06/26 09:41:05;;;;;;;3.17;2.97;;;;;;;30.74;47.44;100635.81;5050190;28;20030;-27
2022/06/26 09:43:35;;;;;;;3.03;2.83;;;;;;;30.76;46.61;100636.53;5067081;28;20024;-28
2022/06/26 09:46:06;;;;;;;3.00;2.85;;;;;;;30.87;49.05;100640.09;5064693;28;20090;-28
2022/06/26 09:48:32;;;;;;;2.92;2.72;;;;;;;30.94;48.48;100635.78;5065778;28;20123;-28
2022/06/26 09:50:58;;;;;;;3.03;2.63;;;;;;;30.96;49.73;100636.47;5033608;28;20101;-29
2022/06/26 09:53:24;;;;;;;2.85;2.65;;;;;;;31.04;47.59;100627.56;5050320;28;20032;-29
2022/06/26 09:55:52;;;;;;;3.70;2.28;;;;;;;31.18;47.75;100626.19;5047291;28;20024;-29
2022/06/26 09:58:17;;;;;;;2.75;2.55;;;;;;;31.35;44.10;100628.13;5071535;28;20023;-28
2022/06/26 10:06:25;;;;;;;2.95;2.65;;;;;;;31.46;44.53;100618.91;5061489;28;20024;-29
2022/06/26 10:06:32;;;;;;;2.70;2.50;;;;;;;31.78;43.57;100627.59;5046493;28;20046;-29
2022/06/26 10:09:00;;;;;;;2.80;2.60;;;;;;;31.98;40.69;100627.47;5042513;28;20028;-28
2022/06/26 10:11:27;;;;;;;2.50;2.40;;;;;;;32.16;40.21;100632.03;5045503;28;20422;-28
2022/06/26 10:14:16;;;;;;;2.58;2.38;;;;;;;32.32;40.02;100623.13;5063985;28;20041;-30
2022/06/26 10:17:10;;;;;;;3.00;2.60;;;;;;;32.26;41.85;100630.06;5064099;28;20058;-28
2022/06/26 10:19:58;;;;;;;2.47;2.38;;;;;;;32.18;42.53;100632.75;5063353;28;20039;-28
2022/06/26 10:22:24;;;;;;;3.58;2.40;;;;;;;32.28;41.86;100635.38;5063733;28;20024;-28
2022/06/26 10:24:50;;;;;;;2.50;2.40;;;;;;;32.32;40.80;100629.47;5062418;28;20059;-29
2022/06/26 10:27:29;;;;;;;3.45;2.60;;;;;;;32.42;42.13;100628.47;5068737;28;20422;-28
2022/06/26 10:30:23;;;;;;;2.30;2.20;;;;;;;32.56;42.11;100636.13;5068532;28;20036;-30
2022/06/26 10:33:14;;;;;;;2.17;2.08;;;;;;;32.74;39.72;100627.03;5062993;28;20024;-27
2022/06/26 10:35:41;;;;;;;2.28;2.17;;;;;;;32.90;40.19;100621.66;5067132;28;20074;-28
2022/06/26 10:38:24;;;;;;;2.38;2.17;;;;;;;33.19;37.69;100625.06;5045040;28;20027;-29
2022/06/26 10:43:49;;;;;;;2.42;2.22;;;;;;;33.24;38.29;100627.31;5054275;28;20407;-30
2022/06/26 10:46:15;;;;;;;2.60;2.40;;;;;;;33.38;37.04;100628.56;5047613;28;20051;-29
2022/06/26 10:48:53;;;;;;;1.88;1.77;;;;;;;33.41;36.89;100620.03;5048448;28;20376;-30
2022/06/26 10:51:26;;;;;;;2.28;2.03;;;;;;;33.42;38.36;100619.00;5046611;28;20499;-28
2022/06/26 10:53:51;;;;;;;2.42;2.33;;;;;;;33.48;38.67;100620.19;5067119;28;20500;-28
2022/06/26 10:56:16;;;;;;;2.28;2.08;;;;;;;33.67;35.41;100627.25;5068419;28;20052;-28
2022/06/26 10:58:45;;;;;;;1.85;1.75;;;;;;;33.81;35.54;100623.03;5071440;28;20020;-30
2022/06/26 11:01:11;;;;;;;2.58;2.38;;;;;;;33.81;34.49;100633.13;5064061;28;20486;-29
2022/06/26 11:03:37;;;;;;;2.22;1.73;;;;;;;33.62;35.48;100619.59;5065916;28;20040;-28
2022/06/26 11:06:05;;;;;;;1.88;1.77;;;;;;;33.51;37.11;100617.16;5068365;28;20047;-28
2022/06/26 11:08:43;;;;;;;1.77;1.67;;;;;;;33.39;38.03;100613.84;5069236;28;20545;-29
2022/06/26 11:11:14;;;;;;;1.70;1.60;;;;;;;33.32;37.97;100608.22;5050820;28;20024;-27
2022/06/26 11:14:06;;;;;;;1.80;1.70;;;;;;;33.28;38.14;100609.56;5070732;28;20643;-27
2022/06/26 11:16:34;;;;;;;1.73;1.63;;;;;;;33.23;39.83;100614.66;5069416;28;20027;-29
2022/06/26 11:19:03;;;;;;;2.65;1.70;;;;;;;33.27;40.49;100614.16;5064169;28;20037;-28
2022/06/26 11:21:28;;;;;;;1.75;1.65;;;;;;;33.35;37.88;100613.34;5048297;28;20054;-27
2022/06/26 11:23:58;;;;;;;2.28;2.00;;;;;;;33.39;38.66;100622.06;5069083;28;20032;-29
2022/06/26 11:26:23;;;;;;;3.33;2.03;;;;;;;33.49;38.01;100614.56;5071491;28;20407;-29
2022/06/26 11:28:57;;;;;;;2.80;1.95;;;;;;;33.54;36.40;100617.66;5051593;28;20032;-27
2022/06/26 11:31:25;;;;;;;1.85;1.75;;;;;;;33.50;37.02;100610.81;5034757;28;20031;-28
2022/06/26 11:33:53;;;;;;;2.08;1.98;;;;;;;33.52;36.63;100610.66;5067027;28;20062;-28
2022/06/26 11:36:19;;;;;;;2.20;2.10;;;;;;;33.50;35.91;100613.53;5069105;28;20025;-28
2022/06/26 11:39:03;;;;;;;2.25;1.88;;;;;;;33.34;38.43;100616.25;5068780;28;20090;-27
2022/06/26 11:41:28;;;;;;;1.60;1.50;;;;;;;33.24;39.09;100624.56;5064861;28;20025;-28
2022/06/26 11:43:57;;;;;;;2.03;1.67;;;;;;;33.23;39.98;100611.91;5047281;28;20036;-29
2022/06/26 11:46:23;;;;;;;1.92;1.67;;;;;;;33.21;40.68;100612.06;5047444;28;20037;-28
2022/06/26 11:48:50;;;;;;;3.03;2.10;;;;;;;33.22;38.97;100600.16;5068322;28;20040;-29
2022/06/26 11:51:17;;;;;;;4.30;1.80;;;;;;;33.34;38.56;100606.16;5067570;28;20391;-29
2022/06/26 11:53:45;;;;;;;1.75;1.65;;;;;;;33.41;37.29;100607.19;5067439;28;20579;-28
2022/06/26 11:56:20;;;;;;;1.42;1.40;;;;;;;33.50;37.90;100602.59;5069659;28;20502;-29